TimeCDT,TemperatureF,Dew PointF,Humidity,Sea Level PressureIn,VisibilityMPH,Wind Direction,Wind SpeedMPH,Gust SpeedMPH,PrecipitationIn,Events,Conditions,WindDirDegrees,DateUTC
12:52 AM,30.9,28.0,89,30.06,4.0,WNW,6.9,-,N/A,,Clear,290,2013-03-30 05:52:00
1:52 AM,30.9,28.9,92,30.05,4.0,West,6.9,-,N/A,,Clear,270,2013-03-30 06:52:00
2:52 AM,30.0,28.9,96,30.05,3.0,West,4.6,-,N/A,,Clear,260,2013-03-30 07:52:00
3:36 AM,28.0,27.0,96,29.99,2.5,WNW,4.6,-,N/A,,Clear,300,2013-03-30 08:36:00
3:52 AM,28.0,27.0,96,30.04,3.0,WNW,5.8,-,N/A,,Clear,290,2013-03-30 08:52:00
4:52 AM,28.9,28.0,96,30.04,2.5,WSW,4.6,-,N/A,,Clear,250,2013-03-30 09:52:00
5:35 AM,30.0,28.9,96,30.00,3.0,West,5.8,-,N/A,,Clear,260,2013-03-30 10:35:00
5:52 AM,28.9,28.0,96,30.05,2.5,WSW,4.6,-,N/A,,Clear,250,2013-03-30 10:52:00
6:00 AM,28.9,28.0,96,30.00,3.0,West,3.5,-,N/A,,Clear,260,2013-03-30 11:00:00
6:10 AM,28.9,28.0,96,30.00,2.5,West,4.6,-,N/A,,Clear,260,2013-03-30 11:10:00
6:22 AM,28.0,28.0,100,30.01,3.0,Calm,Calm,-,N/A,,Clear,0,2013-03-30 11:22:00
6:30 AM,26.1,25.0,96,30.01,2.5,Calm,Calm,-,N/A,,Clear,0,2013-03-30 11:30:00
6:37 AM,28.0,26.1,92,30.01,3.0,Calm,Calm,-,N/A,,Clear,0,2013-03-30 11:37:00
6:52 AM,30.0,28.9,96,30.06,3.0,WNW,4.6,-,N/A,,Clear,300,2013-03-30 11:52:00
7:04 AM,27.0,25.0,92,30.01,2.5,WNW,4.6,-,N/A,,Clear,290,2013-03-30 12:04:00
7:25 AM,26.1,25.0,96,30.01,1.8,Calm,Calm,-,N/A,,Partly Cloudy,0,2013-03-30 12:25:00
7:39 AM,28.9,27.0,92,30.02,1.5,Calm,Calm,-,N/A,,Mostly Cloudy,0,2013-03-30 12:39:00
7:52 AM,30.9,30.0,96,30.07,1.8,WSW,4.6,-,N/A,,Overcast,250,2013-03-30 12:52:00
8:19 AM,32.0,30.9,96,30.02,1.8,WNW,6.9,-,N/A,,Overcast,290,2013-03-30 13:19:00
8:52 AM,33.1,32.0,96,30.08,1.0,WNW,8.1,-,N/A,,Overcast,300,2013-03-30 13:52:00
9:33 AM,34.0,32.0,92,30.03,2.5,NNW,11.5,-,N/A,,Overcast,330,2013-03-30 14:33:00
9:40 AM,34.0,32.0,92,30.03,2.5,NW,12.7,-,N/A,,Overcast,320,2013-03-30 14:40:00
9:52 AM,36.0,33.1,89,30.08,3.0,NW,8.1,-,N/A,,Overcast,320,2013-03-30 14:52:00
10:35 AM,37.9,33.1,83,30.03,5.0,NW,6.9,-,N/A,,Haze,310,2013-03-30 15:35:00
10:52 AM,39.0,33.1,79,30.08,7.0,NNW,11.5,-,N/A,,Scattered Clouds,330,2013-03-30 15:52:00
11:52 AM,43.0,34.0,71,30.08,10.0,NW,12.7,-,N/A,,Clear,310,2013-03-30 16:52:00
12:52 PM,46.0,34.0,63,30.07,10.0,NW,11.5,-,N/A,,Clear,320,2013-03-30 17:52:00
1:52 PM,50.0,34.0,54,30.05,10.0,NW,11.5,19.6,N/A,,Clear,310,2013-03-30 18:52:00
2:52 PM,52.0,32.0,47,30.04,10.0,NW,6.9,18.4,N/A,,Clear,320,2013-03-30 19:52:00
3:52 PM,53.1,30.0,41,30.03,10.0,NNW,12.7,-,N/A,,Clear,340,2013-03-30 20:52:00
4:52 PM,54.0,30.9,41,30.01,10.0,NNW,13.8,-,N/A,,Clear,340,2013-03-30 21:52:00
5:52 PM,52.0,28.9,41,30.01,10.0,North,18.4,23.0,N/A,,Clear,360,2013-03-30 22:52:00
6:52 PM,45.0,30.0,56,30.04,10.0,NNW,15.0,-,N/A,,Overcast,330,2013-03-30 23:52:00
7:52 PM,43.0,33.1,68,30.03,10.0,NW,11.5,-,N/A,,Overcast,320,2013-03-31 00:52:00
8:52 PM,39.9,33.1,77,30.04,10.0,WNW,11.5,-,N/A,,Clear,290,2013-03-31 01:52:00
9:52 PM,37.9,32.0,79,30.06,10.0,NW,11.5,17.3,N/A,,Clear,310,2013-03-31 02:52:00
10:52 PM,37.0,30.0,76,30.07,10.0,WNW,9.2,-,N/A,,Clear,300,2013-03-31 03:52:00
11:52 PM,36.0,25.0,64,30.07,10.0,WNW,18.4,23.0,N/A,,Clear,290,2013-03-31 04:52:00